Time;durP1;ratioP1;P1;durP2;ratioP2;P2;SDS_P1;SDS_P2;PMS_P1;PMS_P2;Temp;Humidity;BMP_temperature;BMP_pressure;BME280_temperature;BME280_humidity;BME280_pressure;Samples;Min_cycle;Max_cycle;Signal;HPM_P1;HPM_P2
2021/10/07 00:00:07;;;;;;;37.17;27.87;;;12.60;99.90;;;;;;5134142;27;21282;-70
2021/10/07 00:02:33;;;;;;;39.63;29.97;;;12.60;99.90;;;;;;5134685;27;20145;-70
2021/10/07 00:04:59;;;;;;;39.20;29.47;;;12.60;99.90;;;;;;5134575;27;20383;-70
2021/10/07 00:07:24;;;;;;;37.70;28.00;;;12.60;99.90;;;;;;5134453;27;20262;-70
2021/10/07 00:09:50;;;;;;;39.27;29.37;;;12.60;99.90;;;;;;5134378;27;20158;-70
2021/10/07 00:12:15;;;;;;;39.20;27.60;;;12.60;99.90;;;;;;5134818;27;20484;-70
2021/10/07 00:14:41;;;;;;;37.07;26.50;;;12.60;99.90;;;;;;5134113;27;20169;-70
2021/10/07 00:17:06;;;;;;;38.03;26.67;;;12.60;99.90;;;;;;5134771;27;20162;-70
2021/10/07 00:19:32;;;;;;;40.17;28.07;;;12.60;99.90;;;;;;5134076;27;20229;-70
2021/10/07 00:21:58;;;;;;;36.57;28.77;;;12.60;99.90;;;;;;5134221;27;20185;-70
2021/10/07 00:24:23;;;;;;;37.77;29.17;;;12.60;99.90;;;;;;5134169;27;20158;-70
2021/10/07 00:26:49;;;;;;;41.37;30.30;;;12.60;99.90;;;;;;5133949;27;20178;-70
2021/10/07 00:32:09;;;;;;;68.70;44.73;;;12.60;99.90;;;;;;5118861;27;20991;-70
2021/10/07 00:37:25;;;;;;;53.93;37.90;;;12.60;99.90;;;;;;5118694;27;20487;-70
2021/10/07 00:39:51;;;;;;;61.10;39.63;;;12.60;99.90;;;;;;5134416;27;20422;-70
2021/10/07 00:42:17;;;;;;;58.00;39.33;;;12.60;99.90;;;;;;5133944;27;20410;-70
2021/10/07 00:44:44;;;;;;;51.17;36.17;;;12.60;99.90;;;;;;5134129;27;20387;-70
2021/10/07 00:47:11;;;;;;;45.57;33.47;;;12.60;99.90;;;;;;5134271;27;20157;-70
2021/10/07 00:49:40;;;;;;;46.90;32.13;;;12.70;99.90;;;;;;5133496;27;20438;-70
2021/10/07 00:52:08;;;;;;;50.20;32.90;;;12.60;99.90;;;;;;5133726;27;20391;-70
2021/10/07 00:54:34;;;;;;;45.07;32.43;;;12.60;99.90;;;;;;5133699;27;20402;-70
2021/10/07 00:57:03;;;;;;;44.53;30.53;;;12.60;99.90;;;;;;5133560;27;20400;-70
2021/10/07 00:59:29;;;;;;;47.67;31.90;;;12.60;99.90;;;;;;5134035;27;20202;-70
2021/10/07 01:01:54;;;;;;;44.83;33.20;;;12.60;99.90;;;;;;5133375;28;20488;-70
2021/10/07 01:04:20;;;;;;;48.40;31.57;;;12.70;99.90;;;;;;5133544;28;20180;-70
2021/10/07 01:06:46;;;;;;;51.17;34.40;;;12.60;99.90;;;;;;5133544;28;20181;-70
2021/10/07 01:09:11;;;;;;;56.70;37.73;;;12.60;99.90;;;;;;5133423;28;20227;-70
2021/10/07 01:11:38;;;;;;;65.10;43.17;;;12.60;99.90;;;;;;5133608;28;20150;-70
2021/10/07 01:14:04;;;;;;;63.13;44.03;;;12.60;99.90;;;;;;5134059;28;20547;-70
2021/10/07 01:16:29;;;;;;;68.67;42.13;;;12.60;99.90;;;;;;5133628;28;20383;-70
2021/10/07 01:18:55;;;;;;;73.77;44.93;;;12.60;99.90;;;;;;5133506;28;20579;-70
2021/10/07 01:21:22;;;;;;;61.97;43.97;;;12.60;99.90;;;;;;5133207;28;20181;-70
2021/10/07 01:23:49;;;;;;;61.83;40.30;;;12.50;99.90;;;;;;5133250;28;20939;-70
2021/10/07 01:26:17;;;;;;;59.83;35.50;;;12.60;99.90;;;;;;5133400;28;20419;-70
2021/10/07 01:28:48;;;;;;;51.53;34.13;;;12.60;99.90;;;;;;5133760;28;20764;-70
2021/10/07 01:31:14;;;;;;;49.00;32.60;;;12.60;99.90;;;;;;5133601;28;20462;-70
2021/10/07 01:33:40;;;;;;;45.73;31.70;;;12.60;99.90;;;;;;5133438;28;20379;-70
2021/10/07 01:36:07;;;;;;;51.50;34.27;;;12.60;99.90;;;;;;5133265;28;20443;-70
2021/10/07 01:38:32;;;;;;;50.73;33.97;;;12.60;99.90;;;;;;5133144;28;20280;-70
2021/10/07 01:40:58;;;;;;;53.70;33.67;;;12.60;99.90;;;;;;5132982;28;20501;-70
2021/10/07 01:43:24;;;;;;;53.30;34.40;;;12.60;99.90;;;;;;5133809;28;20626;-70
2021/10/07 01:45:51;;;;;;;52.70;32.63;;;12.60;99.90;;;;;;5133269;28;20615;-70
2021/10/07 01:48:17;;;;;;;52.17;36.23;;;12.60;99.90;;;;;;5133171;28;20395;-70
2021/10/07 01:50:43;;;;;;;51.27;34.20;;;12.60;99.90;;;;;;5132838;28;20459;-70
2021/10/07 01:53:09;;;;;;;61.23;38.37;;;12.60;99.90;;;;;;5133120;28;20391;-70
2021/10/07 01:55:34;;;;;;;58.37;38.00;;;12.60;99.90;;;;;;5133175;28;20391;-70
2021/10/07 01:58:00;;;;;;;68.20;45.73;;;12.50;99.90;;;;;;5133401;28;20205;-70
2021/10/07 02:00:26;;;;;;;77.10;51.00;;;12.50;99.90;;;;;;5132948;27;20189;-70
2021/10/07 02:02:51;;;;;;;72.40;45.40;;;12.40;99.90;;;;;;5133061;28;20150;-70
2021/10/07 02:05:17;;;;;;;65.63;42.27;;;12.30;99.90;;;;;;5133699;27;20168;-70
2021/10/07 02:07:44;;;;;;;60.43;39.43;;;12.30;99.90;;;;;;5137005;27;20166;-70
2021/10/07 02:10:17;;;;;;;59.30;38.30;;;12.30;99.90;;;;;;5137181;27;20403;-72
2021/10/07 02:12:45;;;;;;;57.57;35.70;;;12.20;99.90;;;;;;5136758;27;20410;-72
2021/10/07 02:15:11;;;;;;;54.77;34.03;;;12.20;99.90;;;;;;5136885;27;20415;-73
2021/10/07 02:17:37;;;;;;;53.33;33.17;;;12.20;99.90;;;;;;5136943;27;20430;-72
2021/10/07 02:20:05;;;;;;;49.10;33.60;;;12.20;99.90;;;;;;5136264;27;20779;-72
2021/10/07 02:22:30;;;;;;;47.40;32.70;;;12.20;99.90;;;;;;5136373;27;20950;-72
2021/10/07 02:24:56;;;;;;;46.97;32.70;;;12.20;99.90;;;;;;5136146;27;20439;-72
2021/10/07 02:27:22;;;;;;;50.97;32.27;;;12.10;99.90;;;;;;5136376;27;20229;-72
2021/10/07 02:29:47;;;;;;;57.20;35.17;;;12.10;99.90;;;;;;5139724;27;20198;-72
2021/10/07 02:32:13;;;;;;;52.33;33.13;;;12.10;99.90;;;;;;5137461;27;20232;-72
2021/10/07 02:34:39;;;;;;;50.67;33.60;;;12.10;99.90;;;;;;5136546;27;20161;-72
2021/10/07 02:37:05;;;;;;;50.77;31.90;;;12.00;99.90;;;;;;5136193;27;20402;-72
2021/10/07 02:39:30;;;;;;;44.10;31.30;;;12.00;99.90;;;;;;5136069;27;20182;-72
2021/10/07 02:41:56;;;;;;;43.53;28.67;;;12.10;99.90;;;;;;5136103;27;20169;-72
2021/10/07 02:44:21;;;;;;;46.20;29.60;;;12.00;99.90;;;;;;5139156;27;20433;-72
2021/10/07 02:46:47;;;;;;;49.27;29.70;;;12.00;99.90;;;;;;5136290;27;20154;-72
2021/10/07 02:49:12;;;;;;;45.30;30.57;;;12.10;99.90;;;;;;5136016;27;20226;-72
2021/10/07 02:51:38;;;;;;;43.83;30.27;;;12.10;99.90;;;;;;5135839;27;20210;-72
2021/10/07 02:54:04;;;;;;;50.53;30.37;;;12.10;99.90;;;;;;5135930;27;20574;-72
2021/10/07 02:56:29;;;;;;;44.80;28.80;;;12.10;99.90;;;;;;5135933;27;20168;-72
2021/10/07 02:58:55;;;;;;;48.23;28.90;;;12.00;99.90;;;;;;5139186;27;20208;-72
2021/10/07 03:01:20;;;;;;;43.90;28.57;;;12.00;99.90;;;;;;5135726;27;20150;-72
2021/10/07 03:03:46;;;;;;;43.77;29.23;;;12.00;99.90;;;;;;5135397;27;20169;-72
2021/10/07 03:06:12;;;;;;;42.03;28.73;;;12.00;99.90;;;;;;5135472;27;20169;-72
2021/10/07 03:08:37;;;;;;;44.63;28.90;;;12.00;99.90;;;;;;5135515;27;20162;-72
2021/10/07 03:11:03;;;;;;;42.27;29.40;;;11.90;99.90;;;;;;5135559;27;20641;-72
2021/10/07 03:13:28;;;;;;;44.73;27.40;;;11.90;99.90;;;;;;5136219;27;20253;-72
2021/10/07 03:15:54;;;;;;;45.73;29.40;;;11.90;99.90;;;;;;5135195;27;20215;-72
2021/10/07 03:18:19;;;;;;;42.57;29.30;;;11.90;99.90;;;;;;5135342;27;20230;-72
2021/10/07 03:20:45;;;;;;;41.17;29.07;;;11.90;99.90;;;;;;5135307;27;20262;-73
2021/10/07 03:23:11;;;;;;;45.40;28.67;;;11.80;99.90;;;;;;5134981;27;20263;-73
2021/10/07 03:25:36;;;;;;;40.87;29.50;;;11.80;99.90;;;;;;5135376;27;20154;-72
2021/10/07 03:28:02;;;;;;;45.77;29.53;;;11.80;99.90;;;;;;5136319;27;20192;-72
2021/10/07 03:30:28;;;;;;;46.87;29.43;;;11.80;99.90;;;;;;5135188;27;20158;-72
2021/10/07 03:32:53;;;;;;;49.07;28.43;;;11.80;99.90;;;;;;5134871;27;20157;-72
2021/10/07 03:35:19;;;;;;;43.20;28.30;;;11.80;99.90;;;;;;5133155;27;20207;-72
2021/10/07 03:37:44;;;;;;;52.83;29.60;;;11.80;99.90;;;;;;5133914;27;20537;-72
2021/10/07 03:40:11;;;;;;;42.90;28.63;;;11.80;99.90;;;;;;5133912;27;20677;-72
2021/10/07 03:42:37;;;;;;;50.33;28.93;;;11.80;99.90;;;;;;5134999;27;20150;-72
2021/10/07 03:45:04;;;;;;;46.67;29.43;;;11.80;99.90;;;;;;5134694;27;20845;-72
2021/10/07 03:47:30;;;;;;;45.77;30.87;;;11.80;99.90;;;;;;5134810;27;20391;-72
2021/10/07 03:49:57;;;;;;;47.00;29.33;;;11.70;99.90;;;;;;5134756;27;20794;-72
2021/10/07 03:52:24;;;;;;;46.17;27.40;;;11.80;99.90;;;;;;5134647;27;20455;-72
2021/10/07 03:54:50;;;;;;;42.13;29.53;;;11.70;99.90;;;;;;5132867;27;20973;-72
2021/10/07 03:57:16;;;;;;;48.87;29.57;;;11.70;99.90;;;;;;5133643;27;20934;-72
2021/10/07 03:59:42;;;;;;;46.17;31.07;;;11.70;99.90;;;;;;5131942;27;20463;-72
2021/10/07 04:02:07;;;;;;;43.30;29.43;;;11.70;99.90;;;;;;5132681;27;20248;-72
2021/10/07 04:04:34;;;;;;;50.20;30.33;;;11.80;99.90;;;;;;5132430;27;20607;-72
2021/10/07 04:06:59;;;;;;;48.07;30.90;;;11.80;99.90;;;;;;5132568;27;20223;-72
2021/10/07 04:09:25;;;;;;;46.23;30.00;;;11.80;99.90;;;;;;5133793;27;20383;-72
2021/10/07 04:11:50;;;;;;;48.50;30.20;;;11.70;99.90;;;;;;5136387;27;20189;-72
2021/10/07 04:14:16;;;;;;;48.80;31.60;;;11.70;99.90;;;;;;5133975;27;20238;-72
2021/10/07 04:16:41;;;;;;;44.23;29.30;;;11.70;99.90;;;;;;5125450;27;20574;-72
2021/10/07 04:19:07;;;;;;;51.97;29.83;;;11.60;99.90;;;;;;5125940;27;20185;-72
2021/10/07 04:21:33;;;;;;;54.50;31.40;;;11.60;99.90;;;;;;5132396;27;20510;-72
2021/10/07 04:23:58;;;;;;;45.00;29.80;;;11.60;99.90;;;;;;5134600;27;20165;-72
2021/10/07 04:26:24;;;;;;;47.00;30.87;;;11.60;99.90;;;;;;5135715;27;20158;-72
2021/10/07 04:28:49;;;;;;;47.80;31.00;;;11.60;99.90;;;;;;5133549;27;20177;-72
2021/10/07 04:31:15;;;;;;;48.50;29.60;;;11.60;99.90;;;;;;5133458;27;20177;-72
2021/10/07 04:33:40;;;;;;;51.70;30.60;;;11.60;99.90;;;;;;5129824;27;20542;-72
2021/10/07 04:36:06;;;;;;;52.03;31.40;;;11.60;99.90;;;;;;5132371;27;20246;-73
2021/10/07 04:38:32;;;;;;;43.87;28.70;;;11.60;99.90;;;;;;5134190;27;20193;-72
2021/10/07 04:40:57;;;;;;;50.47;29.43;;;11.60;99.90;;;;;;5134577;27;20161;-73
2021/10/07 04:43:23;;;;;;;48.53;30.00;;;11.70;99.90;;;;;;5133467;27;20255;-73
2021/10/07 04:45:48;;;;;;;52.60;30.80;;;11.70;99.90;;;;;;5133781;27;20215;-72
2021/10/07 04:48:14;;;;;;;47.07;29.37;;;11.70;99.90;;;;;;5131471;27;20213;-72
2021/10/07 04:50:40;;;;;;;48.60;29.37;;;11.70;99.90;;;;;;5124937;27;20634;-72
2021/10/07 04:53:05;;;;;;;48.27;28.77;;;11.70;99.90;;;;;;5129863;27;20254;-72
2021/10/07 04:55:31;;;;;;;49.23;29.90;;;11.70;99.90;;;;;;5120841;27;20186;-72
2021/10/07 04:57:56;;;;;;;50.07;30.50;;;11.70;99.90;;;;;;5128226;27;20665;-72
2021/10/07 05:00:22;;;;;;;48.03;29.47;;;11.70;99.90;;;;;;5128793;27;20235;-72
2021/10/07 05:02:47;;;;;;;50.70;31.30;;;11.70;99.90;;;;;;5120699;28;20223;-72
2021/10/07 05:05:13;;;;;;;47.87;29.90;;;11.70;99.90;;;;;;5124986;28;20587;-72
2021/10/07 05:07:39;;;;;;;45.83;29.80;;;11.70;99.90;;;;;;5116817;28;20165;-72
2021/10/07 05:10:07;;;;;;;56.70;31.17;;;11.70;99.90;;;;;;5131657;28;20173;-72
2021/10/07 05:12:33;;;;;;;58.67;33.50;;;11.70;99.90;;;;;;5118962;28;20522;-72
2021/10/07 05:14:58;;;;;;;57.43;32.80;;;11.70;99.90;;;;;;5126579;28;21034;-72
2021/10/07 05:17:24;;;;;;;51.50;31.50;;;11.70;99.90;;;;;;5124632;28;20672;-72
2021/10/07 05:19:49;;;;;;;55.33;31.37;;;11.70;99.90;;;;;;5125902;28;20603;-72
2021/10/07 05:22:15;;;;;;;49.87;30.43;;;11.60;99.90;;;;;;5128554;28;20222;-72
2021/10/07 05:24:41;;;;;;;48.80;30.20;;;11.50;99.90;;;;;;5124154;28;20270;-72
2021/10/07 05:27:06;;;;;;;49.57;30.90;;;11.50;99.90;;;;;;5122925;28;20268;-72
2021/10/07 05:29:32;;;;;;;54.03;32.53;;;11.50;99.90;;;;;;5131889;28;20643;-72
2021/10/07 05:31:58;;;;;;;52.77;31.33;;;11.50;99.90;;;;;;5114570;28;20246;-72
2021/10/07 05:34:23;;;;;;;48.87;29.10;;;11.50;99.90;;;;;;5116078;28;20435;-73
2021/10/07 05:36:49;;;;;;;51.73;30.37;;;11.60;99.90;;;;;;5128478;28;20177;-72
2021/10/07 05:39:15;;;;;;;50.27;28.77;;;11.50;99.90;;;;;;5122855;28;20283;-72
2021/10/07 05:41:40;;;;;;;48.17;29.27;;;11.50;99.90;;;;;;5121632;27;20225;-72
2021/10/07 05:44:10;;;;;;;49.37;30.40;;;11.40;99.90;;;;;;5132565;27;20173;-72
2021/10/07 05:46:36;;;;;;;46.40;30.17;;;11.40;99.90;;;;;;5131639;27;20180;-73
2021/10/07 05:49:03;;;;;;;46.03;28.50;;;11.40;99.90;;;;;;5116061;28;20414;-73
2021/10/07 05:51:29;;;;;;;49.63;30.10;;;11.30;99.90;;;;;;5129205;27;20439;-73
2021/10/07 05:53:54;;;;;;;49.60;29.17;;;11.30;99.90;;;;;;5135310;27;20449;-73
2021/10/07 05:56:20;;;;;;;50.10;31.43;;;11.30;99.90;;;;;;5133514;27;20542;-73
2021/10/07 05:58:46;;;;;;;48.77;31.07;;;11.30;99.90;;;;;;5127927;27;20212;-73
2021/10/07 06:01:11;;;;;;;50.57;30.90;;;11.30;99.90;;;;;;5128406;27;20646;-73
2021/10/07 06:03:37;;;;;;;51.93;33.47;;;11.30;99.90;;;;;;5128187;27;20563;-72
2021/10/07 06:06:02;;;;;;;49.67;31.90;;;11.40;99.90;;;;;;5131588;27;20219;-73
2021/10/07 06:08:28;;;;;;;55.77;30.93;;;11.40;99.90;;;;;;5132166;27;20264;-73
2021/10/07 06:10:53;;;;;;;48.70;29.73;;;11.50;99.90;;;;;;5133000;27;20756;-73
2021/10/07 06:13:20;;;;;;;51.60;29.77;;;11.50;99.90;;;;;;5133987;27;20658;-73
2021/10/07 06:15:45;;;;;;;45.43;29.30;;;11.50;99.90;;;;;;5135086;27;20269;-73
2021/10/07 06:18:11;;;;;;;40.47;26.43;;;11.60;99.90;;;;;;5130454;27;20891;-73
2021/10/07 06:20:37;;;;;;;42.93;26.17;;;11.60;99.90;;;;;;5135251;27;20264;-72
2021/10/07 06:23:04;;;;;;;40.33;26.73;;;11.60;99.90;;;;;;5130499;27;20238;-72
2021/10/07 06:25:31;;;;;;;41.27;24.03;;;11.60;99.90;;;;;;5133657;27;20419;-73
2021/10/07 06:27:57;;;;;;;43.67;27.20;;;11.60;99.90;;;;;;5129086;27;20438;-73
2021/10/07 06:30:23;;;;;;;39.90;24.93;;;11.60;99.90;;;;;;5149139;22;20593;-75
2021/10/07 06:32:49;;;;;;;42.50;26.53;;;11.70;99.90;;;;;;5122436;27;20648;-75
2021/10/07 06:35:16;;;;;;;46.13;26.60;;;11.70;99.90;;;;;;5121771;27;20840;-75
2021/10/07 06:37:42;;;;;;;51.30;27.27;;;11.60;99.90;;;;;;5124520;27;20467;-75
2021/10/07 06:40:09;;;;;;;50.07;27.63;;;11.60;99.90;;;;;;5146800;22;20474;-79
2021/10/07 06:42:35;;;;;;;44.30;27.70;;;11.60;99.90;;;;;;5124092;27;20513;-78
2021/10/07 06:45:04;;;;;;;41.77;25.90;;;11.70;99.90;;;;;;5125407;27;20881;-78
2021/10/07 06:47:29;;;;;;;47.90;27.67;;;11.70;99.90;;;;;;5123222;27;20446;-79
2021/10/07 06:49:58;;;;;;;40.90;25.70;;;11.70;99.90;;;;;;5125198;27;20430;-79
2021/10/07 06:52:24;;;;;;;46.90;26.23;;;11.80;99.90;;;;;;5128344;27;20173;-79
2021/10/07 06:54:50;;;;;;;41.77;25.60;;;11.80;99.90;;;;;;5123560;27;20922;-79
2021/10/07 06:57:15;;;;;;;47.80;27.13;;;11.80;99.90;;;;;;5126963;27;20177;-80
2021/10/07 06:59:41;;;;;;;39.27;26.27;;;11.90;99.90;;;;;;5122564;27;20713;-79
2021/10/07 07:02:07;;;;;;;38.80;24.23;;;12.00;99.90;;;;;;5116688;27;20246;-79
2021/10/07 07:04:32;;;;;;;38.63;25.63;;;12.00;99.90;;;;;;5119386;27;20259;-80
2021/10/07 07:06:58;;;;;;;47.93;26.77;;;12.00;99.90;;;;;;5124185;27;20165;-78
2021/10/07 07:09:23;;;;;;;36.03;24.33;;;12.10;99.90;;;;;;5122325;27;20664;-79
2021/10/07 07:11:50;;;;;;;37.50;26.57;;;12.10;99.90;;;;;;5121025;27;20638;-80
2021/10/07 07:14:16;;;;;;;42.90;26.07;;;12.10;99.90;;;;;;5127070;27;20178;-80
2021/10/07 07:16:42;;;;;;;41.43;25.27;;;12.10;99.90;;;;;;5123142;27;20785;-80
2021/10/07 07:19:09;;;;;;;38.13;24.60;;;12.10;99.90;;;;;;5125561;27;20235;-79
2021/10/07 07:21:34;;;;;;;37.17;22.90;;;12.20;99.90;;;;;;5120774;27;20193;-79
2021/10/07 07:24:02;;;;;;;35.00;22.40;;;12.20;99.90;;;;;;5124892;27;20502;-78
2021/10/07 07:26:29;;;;;;;38.50;24.87;;;12.20;99.90;;;;;;5124295;27;20435;-78
2021/10/07 07:28:56;;;;;;;34.27;22.53;;;12.20;99.90;;;;;;5123473;27;20473;-79
2021/10/07 07:31:22;;;;;;;34.73;23.10;;;12.20;99.90;;;;;;5116040;27;20985;-78
2021/10/07 07:33:48;;;;;;;39.27;24.93;;;12.30;99.90;;;;;;5108518;28;20447;-78
2021/10/07 07:36:16;;;;;;;35.93;25.60;;;12.30;99.90;;;;;;5108253;28;20444;-80
2021/10/07 07:38:42;;;;;;;33.80;23.80;;;12.30;99.90;;;;;;5108475;28;20954;-79
2021/10/07 07:41:10;;;;;;;35.20;23.57;;;12.30;99.90;;;;;;5109599;27;20460;-80
2021/10/07 07:43:36;;;;;;;31.90;21.37;;;12.40;99.90;;;;;;5111192;27;20434;-77
2021/10/07 07:46:02;;;;;;;31.20;22.90;;;12.40;99.90;;;;;;5105490;28;21057;-80
2021/10/07 07:48:27;;;;;;;40.57;22.40;;;12.40;99.90;;;;;;5103002;28;20182;-78
2021/10/07 07:50:53;;;;;;;33.07;22.33;;;12.50;99.90;;;;;;5105453;28;20488;-79
2021/10/07 07:53:19;;;;;;;32.53;21.53;;;12.50;99.90;;;;;;5106208;28;20174;-79
2021/10/07 07:55:45;;;;;;;31.53;19.57;;;12.50;99.90;;;;;;5104117;28;20213;-80
2021/10/07 07:58:12;;;;;;;31.20;20.90;;;12.60;99.90;;;;;;5105844;28;20196;-77
2021/10/07 08:00:38;;;;;;;34.60;21.47;;;12.60;99.90;;;;;;5105063;28;20444;-78
2021/10/07 08:03:04;;;;;;;31.67;21.63;;;12.60;99.90;;;;;;5105582;28;20508;-79
2021/10/07 08:05:30;;;;;;;35.10;22.23;;;12.60;99.90;;;;;;5105012;28;20532;-79
2021/10/07 08:07:56;;;;;;;32.10;19.83;;;12.70;99.90;;;;;;5100294;28;20476;-79
2021/10/07 08:10:21;;;;;;;28.60;19.60;;;12.70;99.90;;;;;;5097686;28;20437;-79
2021/10/07 08:12:47;;;;;;;23.60;17.57;;;12.70;99.90;;;;;;5098558;28;20427;-77
2021/10/07 08:15:13;;;;;;;26.90;18.93;;;12.70;99.90;;;;;;5099537;28;20547;-77
2021/10/07 08:17:39;;;;;;;27.73;17.77;;;12.70;99.90;;;;;;5102720;28;20428;-79
2021/10/07 08:20:07;;;;;;;24.27;19.17;;;12.80;99.90;;;;;;5104390;28;20240;-79
2021/10/07 08:22:33;;;;;;;20.47;14.87;;;12.90;99.90;;;;;;5103916;27;20459;-79
2021/10/07 08:24:59;;;;;;;22.83;18.57;;;13.00;99.90;;;;;;5103659;27;20564;-79
2021/10/07 08:27:26;;;;;;;21.60;16.37;;;12.90;99.90;;;;;;5110308;27;20977;-78
2021/10/07 08:29:53;;;;;;;24.70;18.70;;;12.90;99.90;;;;;;5109571;28;20938;-79
2021/10/07 08:32:19;;;;;;;22.70;18.30;;;12.90;99.90;;;;;;5107162;28;20456;-80
2021/10/07 08:34:45;;;;;;;24.10;18.00;;;13.00;99.90;;;;;;5106975;28;20443;-77
2021/10/07 08:37:10;;;;;;;25.40;16.90;;;13.00;99.90;;;;;;5106330;28;20236;-78
2021/10/07 08:39:39;;;;;;;21.77;16.47;;;13.20;99.90;;;;;;5100752;28;20813;-78
2021/10/07 08:42:05;;;;;;;23.80;16.87;;;13.20;99.90;;;;;;5100392;28;20379;-78
2021/10/07 08:44:31;;;;;;;24.20;18.17;;;13.30;99.90;;;;;;5108200;28;20496;-80
2021/10/07 08:46:57;;;;;;;21.97;16.57;;;13.40;99.90;;;;;;5108656;28;20170;-79
2021/10/07 08:49:27;;;;;;;27.93;17.43;;;13.50;99.90;;;;;;5108443;28;20265;-79
2021/10/07 08:51:53;;;;;;;23.33;18.63;;;13.60;99.90;;;;;;5109067;28;20784;-78
2021/10/07 08:54:19;;;;;;;20.10;16.10;;;13.60;99.90;;;;;;5106890;28;20440;-79
2021/10/07 08:56:45;;;;;;;22.17;17.20;;;13.60;99.90;;;;;;5105595;28;20465;-80
2021/10/07 08:59:11;;;;;;;20.43;15.73;;;13.70;99.90;;;;;;5105482;28;20543;-79
2021/10/07 09:01:41;;;;;;;16.43;13.10;;;13.70;99.90;;;;;;5104752;28;20435;-78
2021/10/07 09:04:29;;;;;;;12.23;10.93;;;13.70;99.90;;;;;;5107444;28;20174;-78
2021/10/07 09:07:04;;;;;;;18.53;13.40;;;13.60;99.90;;;;;;5091828;28;20430;-80
2021/10/07 09:09:31;;;;;;;18.67;14.10;;;13.70;99.90;;;;;;5102738;28;20435;-79
2021/10/07 09:12:00;;;;;;;18.97;12.90;;;13.60;99.90;;;;;;5105826;28;20434;-78
2021/10/07 09:14:28;;;;;;;18.30;14.17;;;13.60;99.90;;;;;;5108645;28;20806;-77
2021/10/07 09:16:55;;;;;;;19.00;14.87;;;13.60;99.90;;;;;;5111786;28;20465;-78
2021/10/07 09:19:27;;;;;;;17.33;13.17;;;13.60;99.90;;;;;;5110250;28;20451;-79
2021/10/07 09:21:56;;;;;;;17.83;14.13;;;13.70;99.90;;;;;;5108123;28;20765;-79
2021/10/07 09:24:40;;;;;;;19.60;13.40;;;13.80;99.90;;;;;;5107154;28;20529;-76
2021/10/07 09:27:13;;;;;;;18.07;13.40;;;13.90;99.90;;;;;;5107962;27;20426;-79
2021/10/07 09:32:28;;;;;;;15.10;11.70;;;14.00;99.90;;;;;;5075983;28;20526;-76
2021/10/07 09:34:54;;;;;;;17.10;12.70;;;14.20;99.90;;;;;;5070750;28;20432;-77
2021/10/07 09:37:23;;;;;;;14.83;12.03;;;14.30;99.90;;;;;;5065475;28;20456;-73
2021/10/07 09:39:52;;;;;;;16.80;11.63;;;14.30;99.90;;;;;;5061022;28;20433;-77
2021/10/07 09:42:21;;;;;;;12.53;10.70;;;14.30;99.90;;;;;;5057150;28;20454;-78
2021/10/07 09:47:50;;;;;;;12.30;10.07;;;14.20;99.90;;;;;;5057176;28;20536;-74
2021/10/07 09:53:00;;;;;;;15.30;11.33;;;14.10;99.90;;;;;;5108046;27;20559;-76
2021/10/07 09:55:33;;;;;;;13.70;10.50;;;14.00;99.90;;;;;;5100690;28;20939;-77
2021/10/07 09:58:02;;;;;;;14.37;11.77;;;14.00;99.90;;;;;;5100779;28;20793;-76
2021/10/07 10:00:31;;;;;;;14.77;11.70;;;13.90;99.90;;;;;;5102805;28;20935;-76
2021/10/07 10:02:59;;;;;;;15.40;11.33;;;13.90;99.90;;;;;;5104822;28;20530;-75
2021/10/07 10:05:26;;;;;;;18.77;14.47;;;13.90;99.90;;;;;;5102718;28;20436;-77
2021/10/07 10:07:52;;;;;;;16.23;12.37;;;13.80;99.90;;;;;;5102863;28;20442;-76
2021/10/07 10:10:18;;;;;;;16.53;12.17;;;13.80;99.90;;;;;;5102659;28;20436;-77
2021/10/07 10:12:44;;;;;;;13.70;11.83;;;13.70;99.90;;;;;;5104484;28;20592;-77
2021/10/07 10:15:11;;;;;;;18.63;12.60;;;13.70;99.90;;;;;;5102392;28;20428;-76
2021/10/07 10:17:37;;;;;;;17.80;13.03;;;13.70;99.90;;;;;;5103968;28;20523;-76
2021/10/07 10:20:08;;;;;;;14.90;11.63;;;13.80;99.90;;;;;;5107822;28;20942;-77
2021/10/07 10:22:34;;;;;;;18.60;12.93;;;13.90;99.90;;;;;;5108069;28;20435;-76
2021/10/07 10:25:00;;;;;;;16.57;12.23;;;13.90;99.90;;;;;;5105179;28;20514;-75
2021/10/07 10:27:44;;;;;;;14.90;12.70;;;14.00;99.90;;;;;;5105117;28;20514;-76
2021/10/07 10:30:19;;;;;;;14.70;11.53;;;14.00;99.90;;;;;;5105276;28;20193;-77
2021/10/07 10:32:45;;;;;;;12.00;10.23;;;14.20;99.90;;;;;;5103715;28;20463;-77
2021/10/07 10:35:39;;;;;;;14.23;12.37;;;14.20;99.90;;;;;;5099950;28;20447;-77
2021/10/07 10:38:08;;;;;;;13.30;10.07;;;14.20;99.90;;;;;;5097942;28;20514;-77
2021/10/07 10:40:34;;;;;;;15.33;10.80;;;14.30;99.90;;;;;;5105175;28;20529;-77
2021/10/07 10:43:22;;;;;;;11.73;10.50;;;14.20;99.90;;;;;;5100679;28;20501;-76
2021/10/07 10:51:30;;;;;;;13.60;11.10;;;14.20;99.90;;;;;;5051914;28;20535;-76
2021/10/07 10:56:42;;;;;;;14.97;10.23;;;14.30;99.90;;;;;;5058613;28;20566;-79
2021/10/07 10:59:24;;;;;;;12.70;9.67;;;14.30;99.90;;;;;;5054506;28;20445;-78
2021/10/07 11:04:57;;;;;;;11.20;9.77;;;14.60;99.90;;;;;;5062041;28;20539;-76
2021/10/07 11:07:27;;;;;;;13.80;11.33;;;14.80;99.90;;;;;;5035327;28;20440;-75
2021/10/07 11:12:33;;;;;;;14.33;11.63;;;14.90;99.90;;;;;;5052658;28;21015;-76
2021/10/07 11:14:59;;;;;;;16.33;10.37;;;14.90;99.90;;;;;;5066185;28;20438;-77
2021/10/07 11:17:29;;;;;;;12.30;10.30;;;15.00;99.90;;;;;;5045532;28;20783;-76
2021/10/07 11:19:55;;;;;;;12.30;10.97;;;15.00;99.90;;;;;;5054626;28;20430;-77
2021/10/07 11:22:22;;;;;;;10.50;9.50;;;15.00;99.90;;;;;;5050884;28;20438;-76
2021/10/07 11:24:51;;;;;;;11.73;9.60;;;15.00;99.90;;;;;;5051572;28;20187;-75
2021/10/07 11:27:33;;;;;;;12.07;9.73;;;14.90;99.90;;;;;;5058937;28;20884;-76
2021/10/07 11:29:59;;;;;;;11.30;9.03;;;14.90;99.90;;;;;;5056975;28;20467;-76
2021/10/07 11:32:25;;;;;;;12.60;11.07;;;14.80;99.90;;;;;;5054050;28;20478;-76
2021/10/07 11:35:00;;;;;;;13.93;10.07;;;14.80;99.90;;;;;;5051205;28;20435;-76
2021/10/07 11:37:54;;;;;;;15.40;10.03;;;14.80;99.90;;;;;;5063213;28;20181;-76
2021/10/07 11:40:26;;;;;;;10.93;8.80;;;14.80;99.90;;;;;;5063606;28;20536;-75
2021/10/07 11:42:52;;;;;;;12.83;10.20;;;14.80;99.90;;;;;;5041721;28;20477;-76
2021/10/07 11:45:21;;;;;;;13.27;8.90;;;14.80;99.90;;;;;;5048962;28;20406;-76
2021/10/07 11:47:47;;;;;;;12.43;10.43;;;14.80;99.90;;;;;;5047467;28;20422;-76
2021/10/07 11:50:14;;;;;;;13.47;11.00;;;14.80;99.90;;;;;;5065690;28;20769;-76
2021/10/07 11:52:40;;;;;;;17.73;11.87;;;14.80;99.90;;;;;;5036566;28;20447;-76
2021/10/07 11:55:06;;;;;;;12.77;10.50;;;14.90;99.90;;;;;;5040889;28;20427;-77
2021/10/07 11:57:32;;;;;;;15.33;11.90;;;15.00;99.90;;;;;;5046221;28;20191;-78
2021/10/07 11:59:58;;;;;;;13.40;10.23;;;15.10;99.90;;;;;;5055623;28;20493;-77
2021/10/07 12:02:24;;;;;;;11.20;9.53;;;15.20;99.90;;;;;;5046156;28;20442;-78
2021/10/07 12:04:49;;;;;;;9.27;7.70;;;15.40;99.90;;;;;;5051359;28;20427;-76
2021/10/07 12:07:15;;;;;;;13.40;9.27;;;15.50;99.90;;;;;;5052884;28;20271;-76
2021/10/07 12:09:42;;;;;;;11.97;8.80;;;15.60;99.90;;;;;;5055744;28;20179;-77
2021/10/07 12:12:08;;;;;;;11.87;9.90;;;15.70;99.90;;;;;;5062125;28;20199;-76
2021/10/07 12:14:33;;;;;;;10.50;8.90;;;15.70;99.90;;;;;;5058423;28;20438;-77
2021/10/07 12:16:59;;;;;;;10.13;8.80;;;15.70;99.90;;;;;;5056560;28;20433;-77
2021/10/07 12:19:27;;;;;;;15.60;9.77;;;15.60;99.90;;;;;;5047877;28;20230;-76
2021/10/07 12:21:56;;;;;;;10.90;8.97;;;15.70;99.90;;;;;;5050579;28;20802;-76
2021/10/07 12:24:24;;;;;;;11.57;9.20;;;15.70;99.90;;;;;;5032318;28;20440;-77
2021/10/07 12:26:51;;;;;;;10.10;7.73;;;15.80;99.90;;;;;;5034623;28;20934;-77
2021/10/07 12:29:34;;;;;;;10.63;9.20;;;15.80;99.90;;;;;;5037264;28;20435;-78
2021/10/07 12:32:02;;;;;;;10.37;8.70;;;15.80;99.90;;;;;;5031843;28;20509;-77
2021/10/07 12:34:34;;;;;;;10.97;9.00;;;15.70;99.90;;;;;;5040343;28;20431;-78
2021/10/07 12:37:01;;;;;;;10.20;7.90;;;15.60;99.90;;;;;;5034062;28;20430;-77
2021/10/07 12:39:32;;;;;;;13.03;8.13;;;15.50;99.90;;;;;;5038952;28;20513;-77
2021/10/07 12:42:02;;;;;;;9.97;8.50;;;15.50;99.90;;;;;;5045731;28;20443;-78
2021/10/07 12:44:31;;;;;;;8.87;7.97;;;15.40;99.90;;;;;;5037317;28;20919;-77
2021/10/07 12:46:59;;;;;;;13.90;9.33;;;15.30;99.90;;;;;;5026052;28;20793;-78
2021/10/07 12:49:50;;;;;;;12.73;9.50;;;15.30;99.90;;;;;;5031680;28;20427;-78
2021/10/07 12:52:20;;;;;;;11.83;9.13;;;15.10;99.90;;;;;;5036128;28;20638;-77
2021/10/07 12:54:59;;;;;;;11.23;8.83;;;15.10;99.90;;;;;;5029861;28;20442;-77